sensor_id;sensor_type;location;lat;lon;timestamp;P1;durP1;ratioP1;P2;durP2;ratioP2
751;SDS011;360;48.764;9.164;2023-02-15T00:01:43;14.87;;;9.93;;
751;SDS011;360;48.764;9.164;2023-02-15T00:04:12;18.80;;;10.20;;
751;SDS011;360;48.764;9.164;2023-02-15T00:06:39;10.60;;;5.80;;
751;SDS011;360;48.764;9.164;2023-02-15T00:09:06;12.30;;;8.30;;
751;SDS011;360;48.764;9.164;2023-02-15T00:11:35;14.23;;;9.50;;
751;SDS011;360;48.764;9.164;2023-02-15T00:14:17;8.17;;;4.23;;
751;SDS011;360;48.764;9.164;2023-02-15T00:16:45;6.03;;;4.73;;
751;SDS011;360;48.764;9.164;2023-02-15T00:19:12;15.83;;;8.20;;
751;SDS011;360;48.764;9.164;2023-02-15T00:21:40;9.20;;;6.40;;
751;SDS011;360;48.764;9.164;2023-02-15T00:24:07;7.90;;;6.00;;
751;SDS011;360;48.764;9.164;2023-02-15T00:26:35;17.83;;;10.13;;
751;SDS011;360;48.764;9.164;2023-02-15T00:29:02;10.87;;;7.77;;
751;SDS011;360;48.764;9.164;2023-02-15T00:31:31;12.57;;;7.50;;
751;SDS011;360;48.764;9.164;2023-02-15T00:34:00;9.23;;;6.23;;
751;SDS011;360;48.764;9.164;2023-02-15T00:36:27;15.30;;;9.80;;
751;SDS011;360;48.764;9.164;2023-02-15T00:38:54;10.07;;;7.00;;
751;SDS011;360;48.764;9.164;2023-02-15T00:41:22;19.23;;;7.60;;
751;SDS011;360;48.764;9.164;2023-02-15T00:43:49;14.67;;;7.27;;
751;SDS011;360;48.764;9.164;2023-02-15T00:46:16;14.80;;;8.07;;
751;SDS011;360;48.764;9.164;2023-02-15T00:48:44;10.97;;;7.63;;
751;SDS011;360;48.764;9.164;2023-02-15T00:51:11;10.53;;;6.13;;
751;SDS011;360;48.764;9.164;2023-02-15T00:53:38;11.67;;;7.67;;
751;SDS011;360;48.764;9.164;2023-02-15T00:56:06;12.97;;;6.80;;
751;SDS011;360;48.764;9.164;2023-02-15T00:58:33;8.73;;;6.57;;
751;SDS011;360;48.764;9.164;2023-02-15T01:01:02;9.80;;;6.80;;
751;SDS011;360;48.764;9.164;2023-02-15T01:03:30;8.83;;;4.83;;
751;SDS011;360;48.764;9.164;2023-02-15T01:05:58;9.87;;;6.50;;
751;SDS011;360;48.764;9.164;2023-02-15T01:08:25;14.87;;;7.87;;
751;SDS011;360;48.764;9.164;2023-02-15T01:10:53;12.07;;;6.47;;
751;SDS011;360;48.764;9.164;2023-02-15T01:13:20;8.13;;;5.23;;
751;SDS011;360;48.764;9.164;2023-02-15T01:15:52;11.10;;;6.53;;
751;SDS011;360;48.764;9.164;2023-02-15T01:18:19;11.33;;;6.00;;
751;SDS011;360;48.764;9.164;2023-02-15T01:20:46;15.60;;;6.93;;
751;SDS011;360;48.764;9.164;2023-02-15T01:23:15;14.17;;;7.07;;
751;SDS011;360;48.764;9.164;2023-02-15T01:25:42;6.83;;;5.60;;
751;SDS011;360;48.764;9.164;2023-02-15T01:28:09;8.10;;;5.80;;
751;SDS011;360;48.764;9.164;2023-02-15T01:30:36;8.40;;;5.73;;
751;SDS011;360;48.764;9.164;2023-02-15T01:33:04;11.53;;;5.40;;
751;SDS011;360;48.764;9.164;2023-02-15T01:35:31;12.17;;;7.37;;
751;SDS011;360;48.764;9.164;2023-02-15T01:37:58;13.00;;;7.20;;
751;SDS011;360;48.764;9.164;2023-02-15T01:40:27;10.43;;;4.60;;
751;SDS011;360;48.764;9.164;2023-02-15T01:42:54;15.20;;;5.90;;
751;SDS011;360;48.764;9.164;2023-02-15T01:45:23;12.53;;;7.87;;
751;SDS011;360;48.764;9.164;2023-02-15T01:47:52;7.17;;;4.47;;
751;SDS011;360;48.764;9.164;2023-02-15T01:50:22;10.90;;;7.83;;
751;SDS011;360;48.764;9.164;2023-02-15T01:52:50;11.47;;;6.03;;
751;SDS011;360;48.764;9.164;2023-02-15T01:55:19;10.03;;;6.20;;
751;SDS011;360;48.764;9.164;2023-02-15T01:57:49;8.57;;;5.43;;
751;SDS011;360;48.764;9.164;2023-02-15T02:00:16;12.27;;;6.90;;
751;SDS011;360;48.764;9.164;2023-02-15T02:02:44;9.37;;;5.63;;
751;SDS011;360;48.764;9.164;2023-02-15T02:05:13;8.73;;;5.97;;
751;SDS011;360;48.764;9.164;2023-02-15T02:07:41;6.60;;;4.73;;
751;SDS011;360;48.764;9.164;2023-02-15T02:10:09;10.93;;;6.90;;
751;SDS011;360;48.764;9.164;2023-02-15T02:12:37;10.20;;;6.70;;
751;SDS011;360;48.764;9.164;2023-02-15T02:15:07;8.93;;;8.00;;
751;SDS011;360;48.764;9.164;2023-02-15T02:17:36;12.50;;;7.63;;
751;SDS011;360;48.764;9.164;2023-02-15T02:23:07;10.77;;;4.53;;
751;SDS011;360;48.764;9.164;2023-02-15T02:25:44;7.50;;;6.70;;
751;SDS011;360;48.764;9.164;2023-02-15T02:28:20;7.30;;;4.57;;
751;SDS011;360;48.764;9.164;2023-02-15T02:31:05;9.03;;;5.33;;
751;SDS011;360;48.764;9.164;2023-02-15T02:33:41;6.67;;;5.20;;
751;SDS011;360;48.764;9.164;2023-02-15T02:36:18;8.13;;;5.93;;
751;SDS011;360;48.764;9.164;2023-02-15T02:38:56;8.27;;;5.20;;
751;SDS011;360;48.764;9.164;2023-02-15T02:41:30;6.60;;;4.20;;
751;SDS011;360;48.764;9.164;2023-02-15T02:44:01;10.07;;;6.67;;
751;SDS011;360;48.764;9.164;2023-02-15T02:46:30;12.93;;;5.43;;
751;SDS011;360;48.764;9.164;2023-02-15T02:48:59;9.60;;;8.13;;
751;SDS011;360;48.764;9.164;2023-02-15T02:51:27;12.27;;;6.50;;
751;SDS011;360;48.764;9.164;2023-02-15T02:53:55;7.33;;;5.20;;
751;SDS011;360;48.764;9.164;2023-02-15T02:56:23;9.23;;;5.93;;
751;SDS011;360;48.764;9.164;2023-02-15T02:58:55;5.80;;;4.80;;
751;SDS011;360;48.764;9.164;2023-02-15T03:01:24;9.73;;;7.00;;
751;SDS011;360;48.764;9.164;2023-02-15T03:03:55;12.10;;;6.37;;
751;SDS011;360;48.764;9.164;2023-02-15T03:06:25;17.93;;;7.83;;
751;SDS011;360;48.764;9.164;2023-02-15T03:08:54;13.87;;;6.40;;
751;SDS011;360;48.764;9.164;2023-02-15T03:11:23;16.27;;;7.70;;
751;SDS011;360;48.764;9.164;2023-02-15T03:13:51;10.07;;;6.83;;
751;SDS011;360;48.764;9.164;2023-02-15T03:16:18;10.13;;;5.70;;
751;SDS011;360;48.764;9.164;2023-02-15T03:18:53;8.60;;;5.10;;
751;SDS011;360;48.764;9.164;2023-02-15T03:21:26;12.17;;;5.63;;
751;SDS011;360;48.764;9.164;2023-02-15T03:23:57;14.73;;;7.70;;
751;SDS011;360;48.764;9.164;2023-02-15T03:26:25;5.63;;;5.13;;
751;SDS011;360;48.764;9.164;2023-02-15T03:28:54;14.57;;;6.40;;
751;SDS011;360;48.764;9.164;2023-02-15T03:31:23;5.50;;;3.53;;
751;SDS011;360;48.764;9.164;2023-02-15T03:33:53;9.60;;;4.07;;
751;SDS011;360;48.764;9.164;2023-02-15T03:36:21;6.90;;;5.70;;
751;SDS011;360;48.764;9.164;2023-02-15T03:38:51;9.33;;;5.40;;
751;SDS011;360;48.764;9.164;2023-02-15T03:41:24;7.83;;;7.03;;
751;SDS011;360;48.764;9.164;2023-02-15T03:43:53;7.63;;;4.17;;
751;SDS011;360;48.764;9.164;2023-02-15T03:46:23;7.23;;;4.63;;
751;SDS011;360;48.764;9.164;2023-02-15T03:48:53;9.97;;;6.00;;
751;SDS011;360;48.764;9.164;2023-02-15T03:51:21;11.90;;;5.17;;
751;SDS011;360;48.764;9.164;2023-02-15T03:54:04;7.27;;;4.57;;
751;SDS011;360;48.764;9.164;2023-02-15T03:56:33;11.23;;;5.60;;
751;SDS011;360;48.764;9.164;2023-02-15T03:59:01;11.50;;;7.67;;
751;SDS011;360;48.764;9.164;2023-02-15T04:02:01;6.30;;;3.80;;
751;SDS011;360;48.764;9.164;2023-02-15T04:04:32;7.73;;;7.03;;
751;SDS011;360;48.764;9.164;2023-02-15T04:07:00;7.57;;;4.63;;
751;SDS011;360;48.764;9.164;2023-02-15T04:09:28;7.43;;;4.47;;
751;SDS011;360;48.764;9.164;2023-02-15T04:12:13;8.10;;;5.10;;
751;SDS011;360;48.764;9.164;2023-02-15T04:14:40;7.67;;;5.87;;
751;SDS011;360;48.764;9.164;2023-02-15T04:17:24;16.33;;;5.90;;
751;SDS011;360;48.764;9.164;2023-02-15T04:19:52;5.97;;;5.30;;
751;SDS011;360;48.764;9.164;2023-02-15T04:22:36;10.53;;;5.00;;
751;SDS011;360;48.764;9.164;2023-02-15T04:25:22;12.63;;;6.73;;
751;SDS011;360;48.764;9.164;2023-02-15T04:27:50;7.90;;;5.80;;
751;SDS011;360;48.764;9.164;2023-02-15T04:30:18;5.70;;;3.90;;
751;SDS011;360;48.764;9.164;2023-02-15T04:32:46;11.43;;;6.13;;
751;SDS011;360;48.764;9.164;2023-02-15T04:35:13;6.83;;;5.07;;
751;SDS011;360;48.764;9.164;2023-02-15T04:37:40;7.17;;;5.93;;
751;SDS011;360;48.764;9.164;2023-02-15T04:40:08;9.77;;;6.20;;
751;SDS011;360;48.764;9.164;2023-02-15T04:42:38;5.90;;;5.40;;
751;SDS011;360;48.764;9.164;2023-02-15T04:45:05;6.20;;;4.73;;
751;SDS011;360;48.764;9.164;2023-02-15T04:47:33;10.97;;;5.80;;
751;SDS011;360;48.764;9.164;2023-02-15T04:50:00;6.57;;;4.50;;
751;SDS011;360;48.764;9.164;2023-02-15T04:52:27;6.17;;;4.03;;
751;SDS011;360;48.764;9.164;2023-02-15T04:54:54;10.97;;;6.03;;
751;SDS011;360;48.764;9.164;2023-02-15T04:57:21;9.53;;;5.67;;
751;SDS011;360;48.764;9.164;2023-02-15T04:59:49;9.53;;;6.13;;
751;SDS011;360;48.764;9.164;2023-02-15T05:02:16;11.20;;;6.97;;
751;SDS011;360;48.764;9.164;2023-02-15T05:04:44;8.23;;;6.30;;
751;SDS011;360;48.764;9.164;2023-02-15T05:07:11;8.00;;;6.70;;
751;SDS011;360;48.764;9.164;2023-02-15T05:09:39;9.80;;;4.50;;
751;SDS011;360;48.764;9.164;2023-02-15T05:12:06;5.43;;;4.57;;
751;SDS011;360;48.764;9.164;2023-02-15T05:14:33;7.50;;;4.50;;
751;SDS011;360;48.764;9.164;2023-02-15T05:17:02;5.70;;;4.57;;
751;SDS011;360;48.764;9.164;2023-02-15T05:19:30;13.90;;;5.53;;
751;SDS011;360;48.764;9.164;2023-02-15T05:21:58;13.40;;;6.50;;
751;SDS011;360;48.764;9.164;2023-02-15T05:24:25;6.73;;;4.33;;
751;SDS011;360;48.764;9.164;2023-02-15T05:27:10;8.70;;;5.23;;
751;SDS011;360;48.764;9.164;2023-02-15T05:29:55;9.87;;;4.17;;
751;SDS011;360;48.764;9.164;2023-02-15T05:32:23;11.63;;;5.00;;
751;SDS011;360;48.764;9.164;2023-02-15T05:34:51;10.93;;;8.00;;
751;SDS011;360;48.764;9.164;2023-02-15T05:37:18;10.60;;;6.17;;
751;SDS011;360;48.764;9.164;2023-02-15T05:39:45;10.30;;;6.80;;
751;SDS011;360;48.764;9.164;2023-02-15T05:42:12;10.83;;;5.70;;
751;SDS011;360;48.764;9.164;2023-02-15T05:44:39;20.80;;;9.40;;
751;SDS011;360;48.764;9.164;2023-02-15T05:47:06;6.60;;;4.80;;
751;SDS011;360;48.764;9.164;2023-02-15T05:49:35;9.03;;;6.07;;
751;SDS011;360;48.764;9.164;2023-02-15T05:52:02;8.40;;;4.63;;
751;SDS011;360;48.764;9.164;2023-02-15T05:54:29;10.93;;;5.40;;
751;SDS011;360;48.764;9.164;2023-02-15T05:56:56;15.30;;;6.80;;
751;SDS011;360;48.764;9.164;2023-02-15T05:59:23;8.83;;;5.73;;
751;SDS011;360;48.764;9.164;2023-02-15T06:01:51;5.40;;;4.90;;
751;SDS011;360;48.764;9.164;2023-02-15T06:04:18;17.73;;;6.20;;
751;SDS011;360;48.764;9.164;2023-02-15T06:06:46;10.53;;;6.10;;
751;SDS011;360;48.764;9.164;2023-02-15T06:09:14;9.90;;;6.13;;
751;SDS011;360;48.764;9.164;2023-02-15T06:11:43;13.57;;;6.17;;
751;SDS011;360;48.764;9.164;2023-02-15T06:14:10;10.30;;;6.80;;
751;SDS011;360;48.764;9.164;2023-02-15T06:16:37;7.53;;;4.90;;
751;SDS011;360;48.764;9.164;2023-02-15T06:19:04;7.27;;;4.23;;
751;SDS011;360;48.764;9.164;2023-02-15T06:21:31;8.13;;;6.83;;
751;SDS011;360;48.764;9.164;2023-02-15T06:24:00;14.73;;;6.60;;
751;SDS011;360;48.764;9.164;2023-02-15T06:26:27;10.80;;;7.30;;
751;SDS011;360;48.764;9.164;2023-02-15T06:28:54;10.83;;;5.70;;
751;SDS011;360;48.764;9.164;2023-02-15T06:31:21;16.00;;;6.23;;
751;SDS011;360;48.764;9.164;2023-02-15T06:33:48;6.97;;;5.50;;
751;SDS011;360;48.764;9.164;2023-02-15T06:36:15;7.50;;;6.60;;
751;SDS011;360;48.764;9.164;2023-02-15T06:38:42;10.23;;;5.33;;
751;SDS011;360;48.764;9.164;2023-02-15T06:41:11;8.90;;;6.83;;
751;SDS011;360;48.764;9.164;2023-02-15T06:43:38;8.57;;;5.10;;
751;SDS011;360;48.764;9.164;2023-02-15T06:46:05;7.00;;;6.40;;
751;SDS011;360;48.764;9.164;2023-02-15T06:48:32;8.57;;;5.97;;
751;SDS011;360;48.764;9.164;2023-02-15T06:50:59;12.67;;;6.90;;
751;SDS011;360;48.764;9.164;2023-02-15T06:53:26;10.07;;;7.27;;
751;SDS011;360;48.764;9.164;2023-02-15T06:55:59;11.23;;;7.30;;
751;SDS011;360;48.764;9.164;2023-02-15T06:58:29;8.80;;;7.90;;
751;SDS011;360;48.764;9.164;2023-02-15T07:00:56;8.80;;;5.57;;
751;SDS011;360;48.764;9.164;2023-02-15T07:03:23;6.57;;;5.30;;
751;SDS011;360;48.764;9.164;2023-02-15T07:05:53;7.87;;;5.57;;
751;SDS011;360;48.764;9.164;2023-02-15T07:08:20;11.03;;;5.40;;
751;SDS011;360;48.764;9.164;2023-02-15T07:10:48;9.50;;;6.60;;
751;SDS011;360;48.764;9.164;2023-02-15T07:13:15;10.00;;;7.10;;
751;SDS011;360;48.764;9.164;2023-02-15T07:15:42;9.90;;;6.23;;
751;SDS011;360;48.764;9.164;2023-02-15T07:18:10;6.90;;;5.53;;
751;SDS011;360;48.764;9.164;2023-02-15T07:20:37;9.20;;;6.10;;
751;SDS011;360;48.764;9.164;2023-02-15T07:23:06;11.73;;;8.03;;
751;SDS011;360;48.764;9.164;2023-02-15T07:25:34;12.63;;;7.70;;
751;SDS011;360;48.764;9.164;2023-02-15T07:28:02;11.70;;;7.10;;
751;SDS011;360;48.764;9.164;2023-02-15T07:30:30;12.40;;;8.97;;
751;SDS011;360;48.764;9.164;2023-02-15T07:32:58;7.43;;;4.57;;
751;SDS011;360;48.764;9.164;2023-02-15T07:35:55;7.43;;;5.20;;
751;SDS011;360;48.764;9.164;2023-02-15T07:38:23;12.50;;;7.43;;
751;SDS011;360;48.764;9.164;2023-02-15T07:40:51;8.53;;;5.90;;
751;SDS011;360;48.764;9.164;2023-02-15T07:43:18;7.23;;;5.67;;
751;SDS011;360;48.764;9.164;2023-02-15T07:45:45;15.30;;;7.23;;
751;SDS011;360;48.764;9.164;2023-02-15T07:48:13;12.20;;;6.97;;
751;SDS011;360;48.764;9.164;2023-02-15T07:50:41;17.27;;;6.83;;
751;SDS011;360;48.764;9.164;2023-02-15T07:53:08;7.50;;;6.03;;
751;SDS011;360;48.764;9.164;2023-02-15T07:55:35;11.60;;;8.47;;
751;SDS011;360;48.764;9.164;2023-02-15T07:58:02;13.87;;;7.23;;
751;SDS011;360;48.764;9.164;2023-02-15T08:00:29;12.00;;;7.07;;
751;SDS011;360;48.764;9.164;2023-02-15T08:03:17;9.50;;;7.13;;
751;SDS011;360;48.764;9.164;2023-02-15T08:05:45;10.57;;;5.37;;
751;SDS011;360;48.764;9.164;2023-02-15T08:08:12;11.03;;;6.20;;
751;SDS011;360;48.764;9.164;2023-02-15T08:10:57;18.00;;;7.37;;
751;SDS011;360;48.764;9.164;2023-02-15T08:13:42;7.17;;;6.47;;
751;SDS011;360;48.764;9.164;2023-02-15T08:16:18;13.90;;;6.83;;
751;SDS011;360;48.764;9.164;2023-02-15T08:18:47;11.13;;;7.10;;
751;SDS011;360;48.764;9.164;2023-02-15T08:21:15;15.67;;;7.80;;
751;SDS011;360;48.764;9.164;2023-02-15T08:23:42;13.57;;;8.70;;
751;SDS011;360;48.764;9.164;2023-02-15T08:26:09;9.37;;;7.50;;
751;SDS011;360;48.764;9.164;2023-02-15T08:28:36;8.67;;;6.60;;
751;SDS011;360;48.764;9.164;2023-02-15T08:31:04;11.10;;;8.90;;
751;SDS011;360;48.764;9.164;2023-02-15T08:33:31;12.00;;;6.10;;
751;SDS011;360;48.764;9.164;2023-02-15T08:36:03;15.60;;;6.30;;
751;SDS011;360;48.764;9.164;2023-02-15T08:38:30;9.50;;;6.40;;
751;SDS011;360;48.764;9.164;2023-02-15T08:40:58;13.23;;;8.00;;
751;SDS011;360;48.764;9.164;2023-02-15T08:43:25;10.63;;;6.23;;
751;SDS011;360;48.764;9.164;2023-02-15T08:45:52;11.47;;;6.33;;
751;SDS011;360;48.764;9.164;2023-02-15T08:48:19;14.33;;;6.67;;
751;SDS011;360;48.764;9.164;2023-02-15T08:50:46;11.03;;;8.40;;
751;SDS011;360;48.764;9.164;2023-02-15T08:53:14;12.70;;;7.67;;
751;SDS011;360;48.764;9.164;2023-02-15T08:55:45;14.30;;;8.13;;
751;SDS011;360;48.764;9.164;2023-02-15T08:58:12;9.00;;;5.87;;
751;SDS011;360;48.764;9.164;2023-02-15T09:00:39;12.63;;;6.93;;
751;SDS011;360;48.764;9.164;2023-02-15T09:03:06;14.50;;;8.63;;
751;SDS011;360;48.764;9.164;2023-02-15T09:05:33;13.37;;;7.83;;
751;SDS011;360;48.764;9.164;2023-02-15T09:08:00;18.47;;;8.80;;
751;SDS011;360;48.764;9.164;2023-02-15T09:10:29;15.03;;;8.47;;
751;SDS011;360;48.764;9.164;2023-02-15T09:12:56;10.40;;;7.37;;
751;SDS011;360;48.764;9.164;2023-02-15T09:15:23;14.70;;;9.10;;
751;SDS011;360;48.764;9.164;2023-02-15T09:17:50;9.90;;;7.77;;
751;SDS011;360;48.764;9.164;2023-02-15T09:20:17;12.17;;;8.33;;
751;SDS011;360;48.764;9.164;2023-02-15T09:22:44;7.77;;;6.93;;
751;SDS011;360;48.764;9.164;2023-02-15T09:25:11;15.37;;;8.57;;
751;SDS011;360;48.764;9.164;2023-02-15T09:27:40;15.73;;;9.63;;
751;SDS011;360;48.764;9.164;2023-02-15T09:30:08;9.57;;;7.20;;
751;SDS011;360;48.764;9.164;2023-02-15T09:32:35;19.37;;;9.80;;
751;SDS011;360;48.764;9.164;2023-02-15T09:35:03;13.03;;;8.20;;
751;SDS011;360;48.764;9.164;2023-02-15T09:37:30;12.60;;;8.33;;
751;SDS011;360;48.764;9.164;2023-02-15T09:39:57;15.90;;;8.00;;
751;SDS011;360;48.764;9.164;2023-02-15T09:45:12;16.00;;;8.97;;
751;SDS011;360;48.764;9.164;2023-02-15T09:47:50;14.93;;;10.23;;
751;SDS011;360;48.764;9.164;2023-02-15T09:50:21;13.00;;;8.53;;
751;SDS011;360;48.764;9.164;2023-02-15T09:52:54;9.87;;;8.23;;
751;SDS011;360;48.764;9.164;2023-02-15T09:58:07;15.17;;;8.30;;
751;SDS011;360;48.764;9.164;2023-02-15T10:00:41;15.50;;;9.33;;
751;SDS011;360;48.764;9.164;2023-02-15T10:03:25;12.30;;;8.47;;
751;SDS011;360;48.764;9.164;2023-02-15T10:06:04;15.17;;;9.67;;
751;SDS011;360;48.764;9.164;2023-02-15T10:08:44;17.20;;;8.73;;
751;SDS011;360;48.764;9.164;2023-02-15T10:11:16;12.20;;;9.60;;
751;SDS011;360;48.764;9.164;2023-02-15T10:14:08;14.10;;;7.50;;
751;SDS011;360;48.764;9.164;2023-02-15T10:16:40;17.67;;;6.80;;
751;SDS011;360;48.764;9.164;2023-02-15T10:19:10;17.50;;;7.97;;
751;SDS011;360;48.764;9.164;2023-02-15T10:21:44;14.87;;;9.77;;
751;SDS011;360;48.764;9.164;2023-02-15T10:24:26;21.23;;;10.50;;
751;SDS011;360;48.764;9.164;2023-02-15T10:26:55;18.80;;;10.40;;
751;SDS011;360;48.764;9.164;2023-02-15T10:29:27;11.77;;;8.57;;
751;SDS011;360;48.764;9.164;2023-02-15T10:31:59;16.43;;;8.33;;
751;SDS011;360;48.764;9.164;2023-02-15T10:34:30;17.20;;;9.70;;
751;SDS011;360;48.764;9.164;2023-02-15T10:37:10;17.93;;;8.47;;
751;SDS011;360;48.764;9.164;2023-02-15T10:39:42;15.73;;;10.27;;
751;SDS011;360;48.764;9.164;2023-02-15T10:42:16;17.93;;;8.70;;
751;SDS011;360;48.764;9.164;2023-02-15T10:44:48;16.40;;;9.27;;
751;SDS011;360;48.764;9.164;2023-02-15T10:47:35;23.83;;;10.40;;
751;SDS011;360;48.764;9.164;2023-02-15T10:52:56;17.87;;;10.00;;
751;SDS011;360;48.764;9.164;2023-02-15T10:55:29;19.37;;;9.90;;
751;SDS011;360;48.764;9.164;2023-02-15T10:58:03;13.00;;;8.67;;
751;SDS011;360;48.764;9.164;2023-02-15T11:00:34;16.60;;;10.60;;
751;SDS011;360;48.764;9.164;2023-02-15T11:03:11;13.20;;;9.40;;
751;SDS011;360;48.764;9.164;2023-02-15T11:05:43;16.00;;;8.57;;
751;SDS011;360;48.764;9.164;2023-02-15T11:08:15;14.67;;;8.33;;
751;SDS011;360;48.764;9.164;2023-02-15T11:10:43;12.37;;;7.97;;
751;SDS011;360;48.764;9.164;2023-02-15T11:13:12;10.37;;;8.53;;
751;SDS011;360;48.764;9.164;2023-02-15T11:15:41;15.60;;;9.27;;
751;SDS011;360;48.764;9.164;2023-02-15T11:18:13;14.03;;;9.10;;
751;SDS011;360;48.764;9.164;2023-02-15T11:20:42;17.80;;;10.33;;
751;SDS011;360;48.764;9.164;2023-02-15T11:23:12;15.97;;;9.90;;
751;SDS011;360;48.764;9.164;2023-02-15T11:25:41;11.90;;;9.37;;
751;SDS011;360;48.764;9.164;2023-02-15T11:28:10;18.40;;;12.20;;
751;SDS011;360;48.764;9.164;2023-02-15T11:30:44;20.00;;;10.23;;
751;SDS011;360;48.764;9.164;2023-02-15T11:33:16;16.20;;;11.17;;
751;SDS011;360;48.764;9.164;2023-02-15T11:35:47;16.97;;;9.60;;
751;SDS011;360;48.764;9.164;2023-02-15T11:38:16;16.60;;;10.43;;
751;SDS011;360;48.764;9.164;2023-02-15T11:40:46;14.17;;;9.70;;
751;SDS011;360;48.764;9.164;2023-02-15T11:43:15;20.30;;;10.67;;
751;SDS011;360;48.764;9.164;2023-02-15T11:45:44;12.00;;;8.97;;
751;SDS011;360;48.764;9.164;2023-02-15T11:48:13;20.10;;;11.30;;
751;SDS011;360;48.764;9.164;2023-02-15T11:50:42;17.50;;;9.27;;
751;SDS011;360;48.764;9.164;2023-02-15T11:53:11;16.03;;;9.90;;
751;SDS011;360;48.764;9.164;2023-02-15T11:55:38;12.57;;;8.93;;
751;SDS011;360;48.764;9.164;2023-02-15T11:58:08;14.80;;;10.43;;
751;SDS011;360;48.764;9.164;2023-02-15T12:00:39;15.87;;;10.20;;
751;SDS011;360;48.764;9.164;2023-02-15T12:03:11;14.97;;;9.20;;
751;SDS011;360;48.764;9.164;2023-02-15T12:05:40;19.70;;;10.37;;
751;SDS011;360;48.764;9.164;2023-02-15T12:08:12;20.60;;;10.20;;
751;SDS011;360;48.764;9.164;2023-02-15T12:10:42;21.10;;;8.80;;
751;SDS011;360;48.764;9.164;2023-02-15T12:13:13;13.13;;;9.50;;
751;SDS011;360;48.764;9.164;2023-02-15T12:15:41;15.40;;;10.37;;
751;SDS011;360;48.764;9.164;2023-02-15T12:18:16;11.87;;;8.80;;
751;SDS011;360;48.764;9.164;2023-02-15T12:20:44;15.13;;;10.90;;
751;SDS011;360;48.764;9.164;2023-02-15T12:23:13;15.03;;;9.70;;
751;SDS011;360;48.764;9.164;2023-02-15T12:25:41;17.40;;;9.67;;
751;SDS011;360;48.764;9.164;2023-02-15T12:28:18;22.07;;;12.60;;
751;SDS011;360;48.764;9.164;2023-02-15T12:30:46;15.00;;;9.67;;
751;SDS011;360;48.764;9.164;2023-02-15T12:33:14;18.53;;;9.10;;
751;SDS011;360;48.764;9.164;2023-02-15T12:35:42;16.70;;;9.63;;
751;SDS011;360;48.764;9.164;2023-02-15T12:38:21;18.27;;;10.97;;
751;SDS011;360;48.764;9.164;2023-02-15T12:40:56;16.87;;;9.57;;
751;SDS011;360;48.764;9.164;2023-02-15T12:43:24;17.10;;;12.27;;
751;SDS011;360;48.764;9.164;2023-02-15T12:45:52;15.53;;;10.80;;
751;SDS011;360;48.764;9.164;2023-02-15T12:48:19;15.40;;;10.97;;
751;SDS011;360;48.764;9.164;2023-02-15T12:50:47;20.40;;;11.63;;
751;SDS011;360;48.764;9.164;2023-02-15T12:53:15;13.83;;;10.23;;
751;SDS011;360;48.764;9.164;2023-02-15T12:55:52;24.33;;;11.90;;
751;SDS011;360;48.764;9.164;2023-02-15T12:58:20;14.30;;;10.53;;
751;SDS011;360;48.764;9.164;2023-02-15T13:00:57;16.47;;;10.40;;
751;SDS011;360;48.764;9.164;2023-02-15T13:03:28;14.63;;;9.93;;
751;SDS011;360;48.764;9.164;2023-02-15T13:05:55;13.70;;;9.87;;
751;SDS011;360;48.764;9.164;2023-02-15T13:08:26;16.70;;;12.17;;
751;SDS011;360;48.764;9.164;2023-02-15T13:10:56;17.10;;;10.83;;
751;SDS011;360;48.764;9.164;2023-02-15T13:13:24;17.00;;;11.10;;
751;SDS011;360;48.764;9.164;2023-02-15T13:15:53;18.07;;;10.90;;
751;SDS011;360;48.764;9.164;2023-02-15T13:18:25;15.67;;;10.90;;
751;SDS011;360;48.764;9.164;2023-02-15T13:20:55;15.30;;;11.67;;
751;SDS011;360;48.764;9.164;2023-02-15T13:23:24;13.10;;;11.60;;
751;SDS011;360;48.764;9.164;2023-02-15T13:25:54;21.10;;;11.90;;
751;SDS011;360;48.764;9.164;2023-02-15T13:28:24;16.03;;;10.80;;
751;SDS011;360;48.764;9.164;2023-02-15T13:30:52;14.23;;;11.03;;
751;SDS011;360;48.764;9.164;2023-02-15T13:33:21;14.40;;;10.07;;
751;SDS011;360;48.764;9.164;2023-02-15T13:35:54;19.13;;;11.43;;
751;SDS011;360;48.764;9.164;2023-02-15T13:38:27;14.60;;;9.63;;
751;SDS011;360;48.764;9.164;2023-02-15T13:40:58;16.60;;;11.10;;
751;SDS011;360;48.764;9.164;2023-02-15T13:43:35;16.80;;;10.80;;
751;SDS011;360;48.764;9.164;2023-02-15T13:46:13;16.60;;;10.37;;
751;SDS011;360;48.764;9.164;2023-02-15T13:48:46;17.13;;;10.60;;
751;SDS011;360;48.764;9.164;2023-02-15T13:51:17;17.30;;;12.67;;
751;SDS011;360;48.764;9.164;2023-02-15T13:53:51;20.63;;;10.77;;
751;SDS011;360;48.764;9.164;2023-02-15T13:56:24;14.97;;;12.63;;
751;SDS011;360;48.764;9.164;2023-02-15T13:59:02;18.53;;;11.17;;
751;SDS011;360;48.764;9.164;2023-02-15T14:01:35;18.43;;;10.77;;
751;SDS011;360;48.764;9.164;2023-02-15T14:04:10;18.20;;;11.53;;
751;SDS011;360;48.764;9.164;2023-02-15T14:09:31;22.60;;;11.00;;
751;SDS011;360;48.764;9.164;2023-02-15T14:12:15;18.77;;;12.13;;
751;SDS011;360;48.764;9.164;2023-02-15T14:14:52;13.63;;;9.70;;
751;SDS011;360;48.764;9.164;2023-02-15T14:17:23;13.93;;;9.70;;
751;SDS011;360;48.764;9.164;2023-02-15T14:19:57;12.80;;;9.73;;
751;SDS011;360;48.764;9.164;2023-02-15T14:22:26;12.53;;;10.43;;
751;SDS011;360;48.764;9.164;2023-02-15T14:24:59;15.97;;;9.90;;
751;SDS011;360;48.764;9.164;2023-02-15T14:27:34;10.73;;;8.57;;
751;SDS011;360;48.764;9.164;2023-02-15T14:30:12;16.60;;;8.83;;
751;SDS011;360;48.764;9.164;2023-02-15T14:32:42;10.97;;;9.13;;
751;SDS011;360;48.764;9.164;2023-02-15T14:35:12;15.07;;;9.47;;
751;SDS011;360;48.764;9.164;2023-02-15T14:37:41;14.90;;;10.30;;
751;SDS011;360;48.764;9.164;2023-02-15T14:40:11;16.07;;;9.93;;
751;SDS011;360;48.764;9.164;2023-02-15T14:43:00;15.70;;;9.37;;
751;SDS011;360;48.764;9.164;2023-02-15T14:45:34;15.10;;;9.00;;
751;SDS011;360;48.764;9.164;2023-02-15T14:48:09;14.87;;;9.20;;
751;SDS011;360;48.764;9.164;2023-02-15T14:50:40;13.97;;;8.60;;
751;SDS011;360;48.764;9.164;2023-02-15T14:58:54;16.10;;;9.93;;
751;SDS011;360;48.764;9.164;2023-02-15T15:01:26;14.67;;;9.90;;
751;SDS011;360;48.764;9.164;2023-02-15T15:03:54;13.10;;;9.93;;
751;SDS011;360;48.764;9.164;2023-02-15T15:06:23;13.97;;;10.67;;
751;SDS011;360;48.764;9.164;2023-02-15T15:08:52;13.20;;;10.97;;
751;SDS011;360;48.764;9.164;2023-02-15T15:11:38;13.03;;;9.13;;
751;SDS011;360;48.764;9.164;2023-02-15T15:14:05;13.67;;;8.53;;
751;SDS011;360;48.764;9.164;2023-02-15T15:16:50;14.47;;;8.23;;
751;SDS011;360;48.764;9.164;2023-02-15T15:22:03;13.10;;;9.07;;
751;SDS011;360;48.764;9.164;2023-02-15T15:24:50;11.97;;;8.70;;
751;SDS011;360;48.764;9.164;2023-02-15T15:30:10;8.90;;;7.30;;
751;SDS011;360;48.764;9.164;2023-02-15T15:32:57;13.93;;;8.77;;
751;SDS011;360;48.764;9.164;2023-02-15T15:35:27;12.27;;;8.37;;
751;SDS011;360;48.764;9.164;2023-02-15T15:38:07;16.90;;;8.43;;
751;SDS011;360;48.764;9.164;2023-02-15T15:40:42;12.60;;;8.90;;
751;SDS011;360;48.764;9.164;2023-02-15T15:43:24;15.13;;;9.20;;
751;SDS011;360;48.764;9.164;2023-02-15T15:46:04;14.20;;;8.03;;
751;SDS011;360;48.764;9.164;2023-02-15T15:48:34;16.47;;;8.50;;
751;SDS011;360;48.764;9.164;2023-02-15T15:51:04;14.40;;;8.80;;
751;SDS011;360;48.764;9.164;2023-02-15T15:53:34;11.30;;;8.97;;
751;SDS011;360;48.764;9.164;2023-02-15T15:56:08;16.57;;;9.50;;
751;SDS011;360;48.764;9.164;2023-02-15T15:58:40;11.60;;;8.10;;
751;SDS011;360;48.764;9.164;2023-02-15T16:01:09;13.97;;;9.33;;
751;SDS011;360;48.764;9.164;2023-02-15T16:03:47;9.93;;;7.30;;
751;SDS011;360;48.764;9.164;2023-02-15T16:06:25;14.83;;;9.10;;
751;SDS011;360;48.764;9.164;2023-02-15T16:08:52;13.40;;;9.80;;
751;SDS011;360;48.764;9.164;2023-02-15T16:11:21;13.77;;;8.77;;
751;SDS011;360;48.764;9.164;2023-02-15T16:13:49;13.53;;;10.07;;
751;SDS011;360;48.764;9.164;2023-02-15T16:16:19;14.33;;;9.20;;
751;SDS011;360;48.764;9.164;2023-02-15T16:18:48;12.77;;;10.27;;